Time;durP1;ratioP1;P1;durP2;ratioP2;P2;SDS_P1;SDS_P2;PMS_P1;PMS_P2;Temp;Humidity;BMP_temperature;BMP_pressure;BME280_temperature;BME280_humidity;BME280_pressure;Samples;Min_cycle;Max_cycle;Signal;HPM_P1;HPM_P2
2024/03/16 00:01:09;;;;;;;348.47;103.73;;;;;12.00;96806.00;;;;5035577;28;20199;-84
2024/03/16 00:03:59;;;;;;;356.63;109.10;;;;;12.20;96804.00;;;;5023331;28;20199;-84
2024/03/16 00:06:48;;;;;;;351.57;105.53;;;;;12.30;96796.00;;;;5025781;28;20639;-83
2024/03/16 00:09:38;;;;;;;347.30;102.30;;;;;12.40;96795.00;;;;5022491;28;20788;-82
2024/03/16 00:12:28;;;;;;;349.30;103.90;;;;;12.50;96793.00;;;;5021173;28;20204;-82
2024/03/16 00:15:17;;;;;;;352.40;106.07;;;;;12.30;96801.00;;;;5020146;28;20231;-83
2024/03/16 00:18:06;;;;;;;359.30;110.20;;;;;11.70;96802.00;;;;5039365;28;20216;-83
2024/03/16 00:20:56;;;;;;;369.03;114.70;;;;;11.70;96801.00;;;;5022323;28;20212;-84
2024/03/16 00:23:45;;;;;;;348.93;104.33;;;;;12.20;96803.00;;;;5031375;28;20209;-82
2024/03/16 00:26:34;;;;;;;349.70;105.47;;;;;12.40;96798.00;;;;5022299;28;20692;-82
2024/03/16 00:29:23;;;;;;;346.30;99.60;;;;;12.20;96793.00;;;;5038445;28;20701;-82
2024/03/16 00:32:12;;;;;;;351.47;105.53;;;;;12.20;96787.00;;;;5020172;28;20227;-83
2024/03/16 00:35:03;;;;;;;358.43;107.23;;;;;12.50;96792.00;;;;5023350;28;20608;-82
2024/03/16 00:37:54;;;;;;;362.90;111.03;;;;;12.50;96782.00;;;;5022094;28;20241;-82
2024/03/16 00:40:43;;;;;;;362.07;112.40;;;;;12.40;96782.00;;;;5022448;28;20208;-82
2024/03/16 00:43:32;;;;;;;351.93;107.20;;;;;12.30;96776.00;;;;5034256;28;20581;-82
2024/03/16 00:46:21;;;;;;;353.27;107.50;;;;;12.20;96774.00;;;;5022350;28;20224;-83
2024/03/16 00:49:10;;;;;;;352.53;108.53;;;;;12.50;96785.00;;;;5022537;28;20207;-84
2024/03/16 00:52:00;;;;;;;355.37;109.80;;;;;12.10;96793.00;;;;5034153;28;20693;-83
2024/03/16 00:54:49;;;;;;;352.67;105.90;;;;;12.20;96776.00;;;;5026081;28;20224;-82
2024/03/16 00:57:38;;;;;;;352.60;107.20;;;;;12.10;96784.00;;;;5023116;28;20218;-84
2024/03/16 01:00:27;;;;;;;345.83;102.13;;;;;12.10;96784.00;;;;5025378;28;20197;-84
2024/03/16 01:03:17;;;;;;;351.93;103.57;;;;;12.40;96767.00;;;;5027818;28;20201;-84
2024/03/16 01:06:06;;;;;;;356.87;107.23;;;;;12.60;96780.00;;;;5023120;28;20218;-84
2024/03/16 01:08:55;;;;;;;363.30;112.53;;;;;12.60;96786.00;;;;5034940;28;20199;-83
2024/03/16 01:11:44;;;;;;;352.83;105.17;;;;;12.70;96785.00;;;;5023385;28;20204;-82
2024/03/16 01:14:33;;;;;;;348.63;104.27;;;;;12.70;96781.00;;;;5025151;28;20216;-84
2024/03/16 01:17:22;;;;;;;350.70;104.80;;;;;12.80;96779.00;;;;5023008;28;20228;-82
2024/03/16 01:20:12;;;;;;;352.97;105.87;;;;;12.70;96780.00;;;;5022441;28;20227;-83
2024/03/16 01:23:04;;;;;;;350.97;110.20;;;10.10;99.90;12.70;96779.00;;;;5038798;28;20579;-83
2024/03/16 01:25:53;;;;;;;369.47;119.10;;;10.00;99.90;12.70;96776.00;;;;5026398;28;20188;-83
2024/03/16 01:28:42;;;;;;;352.87;113.23;;;10.10;99.90;12.60;96772.00;;;;5015424;28;20239;-83
2024/03/16 01:31:31;;;;;;;349.20;106.93;;;10.00;99.90;12.60;96761.00;;;;5010102;28;20208;-84
2024/03/16 01:34:20;;;;;;;348.13;107.47;;;;;12.50;96759.00;;;;5009937;28;20230;-83
2024/03/16 01:37:11;;;;;;;347.37;104.70;;;9.80;99.90;12.10;96770.00;;;;5027762;28;20213;-82
2024/03/16 01:40:00;;;;;;;356.67;111.23;;;9.90;99.90;12.40;96756.00;;;;5014125;28;20728;-82
2024/03/16 01:42:49;;;;;;;348.73;107.03;;;9.90;99.90;12.40;96752.00;;;;5014222;28;20746;-82
2024/03/16 01:45:38;;;;;;;362.40;113.53;;;10.00;99.90;11.80;96755.00;;;;5009559;28;20221;-83
2024/03/16 01:48:27;;;;;;;351.07;104.43;;;9.80;99.90;12.30;96759.00;;;;5010808;28;20224;-83
2024/03/16 01:51:17;;;;;;;353.07;108.93;;;9.80;99.90;12.50;96758.00;;;;5012657;28;20678;-84
2024/03/16 01:54:06;;;;;;;363.93;116.13;;;9.80;99.90;12.50;96767.00;;;;5012317;28;20236;-82
2024/03/16 01:56:55;;;;;;;361.93;112.93;;;9.80;99.90;12.50;96764.00;;;;5027915;28;20689;-83
2024/03/16 01:59:44;;;;;;;360.23;110.23;;;9.80;99.90;12.60;96762.00;;;;5010446;28;20209;-82
2024/03/16 02:02:33;;;;;;;352.20;106.47;;;9.80;99.90;12.60;96762.00;;;;5015438;28;20204;-83
2024/03/16 02:05:22;;;;;;;355.53;107.90;;;9.90;99.90;12.50;96754.00;;;;5014074;28;20323;-84
2024/03/16 02:08:11;;;;;;;346.93;102.63;;;9.80;99.90;12.70;96766.00;;;;5015235;28;20224;-84
2024/03/16 02:11:00;;;;;;;371.27;116.17;;;;;12.70;96761.00;;;;5014890;28;20204;-84
2024/03/16 02:13:49;;;;;;;351.20;105.97;;;9.90;99.90;12.40;96754.00;;;;5030363;28;20820;-84
2024/03/16 02:16:39;;;;;;;352.60;108.87;;;10.10;99.90;12.10;96756.00;;;;5014235;28;20205;-83
2024/03/16 02:19:28;;;;;;;347.27;105.73;;;9.80;99.90;11.90;96752.00;;;;5011470;28;20250;-83
2024/03/16 02:22:18;;;;;;;351.63;108.30;;;9.80;99.90;11.70;96754.00;;;;5014210;28;20700;-82
2024/03/16 02:25:08;;;;;;;353.07;105.37;;;9.70;99.90;12.20;96760.00;;;;5013630;28;20206;-84
2024/03/16 02:27:57;;;;;;;352.20;104.57;;;;;12.40;96751.00;;;;5025671;28;20223;-83
2024/03/16 02:30:46;;;;;;;361.43;113.03;;;;;12.50;96752.00;;;;5025517;28;20245;-82
2024/03/16 02:33:35;;;;;;;348.27;105.40;;;;;12.50;96752.00;;;;5025765;28;20209;-84
2024/03/16 02:36:25;;;;;;;343.37;102.57;;;;;12.40;96755.00;;;;5025986;28;20238;-83
2024/03/16 02:39:14;;;;;;;350.43;102.70;;;9.70;99.90;12.30;96760.00;;;;5033361;28;20625;-84
2024/03/16 02:42:03;;;;;;;356.53;110.10;;;;;11.30;96757.00;;;;5012530;28;20208;-84
2024/03/16 02:44:52;;;;;;;352.13;108.17;;;;;11.40;96764.00;;;;5023744;28;20268;-84
2024/03/16 02:47:42;;;;;;;341.63;98.90;;;;;11.80;96763.00;;;;5029311;28;20224;-84
2024/03/16 02:50:32;;;;;;;349.50;103.83;;;9.40;99.90;11.40;96760.00;;;;5022841;28;20228;-84
2024/03/16 02:53:21;;;;;;;349.17;104.33;;;9.40;99.90;11.90;96764.00;;;;5019211;28;20208;-84
2024/03/16 02:56:10;;;;;;;350.83;103.03;;;;;12.10;96759.00;;;;5014521;28;20239;-84
2024/03/16 02:58:59;;;;;;;359.13;111.23;;;9.50;99.90;12.20;96759.00;;;;5043173;28;20201;-84
2024/03/16 03:01:48;;;;;;;352.63;105.67;;;9.50;99.90;12.00;96760.00;;;;5014605;28;20206;-84
2024/03/16 03:04:37;;;;;;;350.57;106.00;;;9.50;99.90;11.90;96760.00;;;;5014752;28;20197;-84
2024/03/16 03:07:26;;;;;;;344.87;99.07;;;9.50;99.90;11.70;96749.00;;;;5018964;28;20228;-84
2024/03/16 03:10:15;;;;;;;345.23;101.83;;;9.50;99.90;11.60;96755.00;;;;5012721;28;20205;-85
2024/03/16 03:13:04;;;;;;;359.10;109.17;;;9.40;99.90;11.40;96750.00;;;;5021219;28;20310;-84
2024/03/16 03:15:53;;;;;;;359.40;107.37;;;9.30;99.90;11.60;96746.00;;;;5018555;28;20839;-84
2024/03/16 03:18:42;;;;;;;355.57;107.03;;;9.30;99.90;11.80;96755.00;;;;5011244;28;20227;-84
2024/03/16 03:21:31;;;;;;;349.00;105.70;;;9.30;99.90;12.00;96760.00;;;;5014033;28;20208;-84
2024/03/16 03:24:20;;;;;;;350.97;103.63;;;9.30;99.90;12.10;96759.00;;;;5015588;28;20204;-84
2024/03/16 03:27:09;;;;;;;349.67;103.90;;;9.40;99.90;12.00;96755.00;;;;5011134;28;20235;-84
2024/03/16 03:29:58;;;;;;;356.73;106.67;;;9.40;99.90;12.00;96761.00;;;;5025077;28;20200;-84
2024/03/16 03:32:47;;;;;;;345.73;100.70;;;9.40;99.90;11.80;96756.00;;;;5014916;28;20203;-84
2024/03/16 03:35:37;;;;;;;357.53;109.27;;;;;11.60;96756.00;;;;5013034;28;20230;-84
2024/03/16 03:38:26;;;;;;;343.97;99.50;;;;;11.80;96756.00;;;;5024359;28;20698;-84
2024/03/16 03:41:15;;;;;;;347.40;100.10;;;;;12.10;96763.00;;;;5025900;28;20200;-84
2024/03/16 03:44:20;;;;;;;354.20;106.67;;;9.30;99.90;11.70;96761.00;;;;5042942;28;20208;-84
2024/03/16 03:47:09;;;;;;;359.33;105.83;;;9.30;99.90;11.80;96767.00;;;;5024173;28;20219;-84
2024/03/16 03:49:59;;;;;;;354.30;107.27;;;9.40;99.90;11.60;96764.00;;;;5014066;28;20206;-84
2024/03/16 03:52:48;;;;;;;346.87;102.13;;;9.30;99.90;11.60;96761.00;;;;5018097;28;20715;-84
2024/03/16 03:55:37;;;;;;;355.70;106.20;;;9.30;99.90;11.60;96767.00;;;;5016329;28;20217;-84
2024/03/16 03:58:26;;;;;;;341.87;97.77;;;;;11.80;96769.00;;;;5019115;28;20253;-84
2024/03/16 04:01:15;;;;;;;347.03;101.90;;;9.20;99.90;11.60;96767.00;;;;5020789;28;20232;-84
2024/03/16 04:04:04;;;;;;;351.87;105.57;;;9.20;99.90;11.50;96775.00;;;;5010729;28;20709;-84
2024/03/16 04:06:53;;;;;;;351.47;102.67;;;9.20;99.90;11.70;96773.00;;;;5014185;28;20216;-84
2024/03/16 04:09:46;;;;;;;348.53;103.80;;;9.20;99.90;11.70;96775.00;;;;5014004;28;20243;-84
2024/03/16 04:12:35;;;;;;;350.30;104.93;;;9.20;99.90;11.70;96774.00;;;;5016644;28;20258;-84
2024/03/16 04:15:24;;;;;;;351.20;103.97;;;9.20;99.90;11.60;96772.00;;;;5013755;28;20225;-84
2024/03/16 04:18:13;;;;;;;348.80;100.27;;;9.20;99.90;11.50;96771.00;;;;5029026;28;20221;-84
2024/03/16 04:21:05;;;;;;;359.47;109.10;;;9.20;99.90;11.50;96776.00;;;;5006873;28;20204;-84
2024/03/16 04:23:54;;;;;;;351.03;104.03;;;9.20;99.90;11.60;96771.00;;;;5021653;28;20257;-84
2024/03/16 04:26:43;;;;;;;349.63;99.83;;;9.00;99.90;11.40;96771.00;;;;5014488;28;20193;-84
2024/03/16 04:29:32;;;;;;;347.30;101.40;;;9.10;99.90;11.30;96777.00;;;;5014881;28;20222;-83
2024/03/16 04:32:24;;;;;;;343.83;97.53;;;9.10;99.90;11.30;96782.00;;;;5016783;28;20201;-84
2024/03/16 04:35:13;;;;;;;350.33;102.03;;;9.00;99.90;11.30;96782.00;;;;5024974;28;20217;-83
2024/03/16 04:38:02;;;;;;;351.80;103.03;;;9.00;99.90;11.40;96778.00;;;;5018823;28;20227;-83
2024/03/16 04:40:50;;;;;;;361.17;108.27;;;9.00;99.90;11.20;96784.00;;;;5009028;28;20228;-84
2024/03/16 04:43:41;;;;;;;339.93;94.60;;;9.00;99.90;11.20;96787.00;;;;5026855;28;20207;-84
2024/03/16 04:46:33;;;;;;;349.97;100.50;;;8.90;99.90;11.30;96787.00;;;;5016934;28;20228;-84
2024/03/16 04:49:22;;;;;;;342.13;96.93;;;8.90;99.90;11.60;96789.00;;;;5009877;28;20740;-83
2024/03/16 04:52:13;;;;;;;347.60;99.20;;;9.00;99.90;11.40;96798.00;;;;5029736;28;20238;-83
2024/03/16 04:55:03;;;;;;;358.47;108.23;;;9.00;99.90;11.40;96792.00;;;;5017475;28;20223;-84
2024/03/16 04:57:52;;;;;;;348.27;103.80;;;9.00;99.90;11.20;96792.00;;;;5014926;28;20235;-83
2024/03/16 05:00:41;;;;;;;353.90;104.77;;;8.90;99.90;11.20;96786.00;;;;5013437;28;20201;-84
2024/03/16 05:03:30;;;;;;;344.20;97.80;;;8.90;99.90;11.20;96785.00;;;;5011199;28;20207;-84
2024/03/16 05:06:19;;;;;;;344.97;96.87;;;8.90;99.90;10.90;96790.00;;;;5017820;28;20310;-83
2024/03/16 05:09:09;;;;;;;354.00;101.67;;;8.80;99.90;11.00;96783.00;;;;5010136;28;20199;-84
2024/03/16 05:11:58;;;;;;;353.53;102.30;;;8.80;99.90;11.10;96775.00;;;;5023252;28;20607;-84
2024/03/16 05:14:47;;;;;;;347.03;99.27;;;8.80;99.90;11.20;96785.00;;;;5011236;28;20553;-84
2024/03/16 05:17:39;;;;;;;348.10;99.60;;;8.80;99.90;11.10;96794.00;;;;5017461;28;20224;-83
2024/03/16 05:20:28;;;;;;;344.73;97.23;;;8.80;99.90;10.90;96788.00;;;;5021108;28;20208;-84
2024/03/16 05:23:17;;;;;;;347.17;97.97;;;8.80;99.90;11.00;96787.00;;;;5016692;28;20212;-83
2024/03/16 05:26:07;;;;;;;359.27;107.17;;;8.80;99.90;11.10;96790.00;;;;5012452;28;20269;-84
2024/03/16 05:28:56;;;;;;;354.97;102.23;;;8.80;99.90;11.60;96791.00;;;;5015801;28;20212;-84
2024/03/16 05:31:45;;;;;;;350.93;102.90;;;8.80;99.90;11.70;96798.00;;;;5022326;28;20213;-83
2024/03/16 05:34:34;;;;;;;347.57;101.03;;;10.30;99.90;11.50;96786.00;;;;5020892;28;20220;-84
2024/03/16 05:37:23;;;;;;;344.47;98.60;;;9.00;99.90;11.30;96787.00;;;;5013720;28;20722;-84
2024/03/16 05:40:12;;;;;;;337.37;93.37;;;9.00;99.90;11.30;96778.00;;;;5019986;28;20217;-83
2024/03/16 05:43:01;;;;;;;345.10;98.70;;;9.00;99.90;11.30;96791.00;;;;5012525;28;20200;-83
2024/03/16 05:45:51;;;;;;;352.87;104.43;;;8.90;99.90;11.10;96793.00;;;;5021006;28;20346;-84
2024/03/16 05:48:40;;;;;;;346.03;97.73;;;8.90;99.90;11.00;96785.00;;;;5016486;28;20630;-83
2024/03/16 05:51:29;;;;;;;344.93;97.70;;;8.80;99.90;10.90;96788.00;;;;5021000;28;20200;-84
2024/03/16 05:54:18;;;;;;;343.03;96.43;;;8.80;99.90;11.00;96780.00;;;;5019616;28;20211;-84
2024/03/16 05:57:07;;;;;;;360.30;108.93;;;8.80;99.90;11.50;96795.00;;;;5008385;28;20240;-83
2024/03/16 05:59:57;;;;;;;356.93;106.47;;;8.80;99.90;11.80;96794.00;;;;5023859;28;20205;-84
2024/03/16 06:02:46;;;;;;;348.93;101.30;;;8.90;99.90;11.90;96796.00;;;;5017355;23;20608;-88
2024/03/16 06:05:36;;;;;;;347.23;99.67;;;;;11.70;96798.00;;;;5017703;28;20632;-88
2024/03/16 06:08:25;;;;;;;351.73;101.27;;;;;11.70;96798.00;;;;5034715;28;20573;-88
2024/03/16 06:11:14;;;;;;;358.13;105.13;;;9.20;99.90;11.70;96808.00;;;;5012976;28;20218;-88
2024/03/16 06:14:04;;;;;;;357.33;107.60;;;9.10;99.90;11.50;96803.00;;;;5012476;28;20727;-88
2024/03/16 06:16:53;;;;;;;339.73;96.73;;;9.20;99.90;11.40;96807.00;;;;4993011;28;20217;-87
2024/03/16 06:19:42;;;;;;;353.53;105.67;;;9.10;99.90;11.70;96813.00;;;;5003045;28;20263;-89
2024/03/16 06:22:32;;;;;;;348.90;103.47;;;9.10;99.90;11.90;96818.00;;;;5001088;28;20267;-88
2024/03/16 06:25:21;;;;;;;340.57;95.80;;;;;11.80;96829.00;;;;5001719;28;20255;-89
2024/03/16 06:28:11;;;;;;;348.90;102.27;;;9.20;99.90;11.80;96822.00;;;;5013650;28;20201;-89
2024/03/16 06:31:07;;;;;;;368.60;113.80;;;9.20;99.90;11.90;96825.00;;;;5001032;28;20606;-89
2024/03/16 06:33:56;;;;;;;347.83;102.17;;;9.40;99.90;11.70;96822.00;;;;4988555;28;20206;-89
2024/03/16 06:36:46;;;;;;;350.07;101.87;;;;;12.20;96830.00;;;;5000478;28;20229;-89
2024/03/16 06:39:35;;;;;;;355.23;104.13;;;9.40;99.90;12.30;96830.00;;;;5012157;28;20743;-89
2024/03/16 06:42:24;;;;;;;370.53;114.23;;;9.40;99.90;12.30;96834.00;;;;4985880;28;20235;-87
2024/03/16 06:45:14;;;;;;;359.53;107.63;;;9.60;99.90;12.20;96833.00;;;;4995915;28;20201;-89
2024/03/16 06:48:03;;;;;;;365.00;114.37;;;9.60;99.90;12.10;96838.00;;;;5021922;28;20717;-88
2024/03/16 06:50:53;;;;;;;377.10;121.93;;;9.70;99.90;12.30;96839.00;;;;4994257;28;20226;-89
2024/03/16 06:53:42;;;;;;;362.47;130.43;;;;;12.70;96838.00;;;;4994767;28;20205;-88
2024/03/16 06:56:31;;;;;;;363.27;116.17;;;8.00;99.90;12.80;96838.00;;;;5008720;28;20668;-89
2024/03/16 06:59:34;;;;;;;350.27;113.97;;;9.90;99.90;13.00;96838.00;;;;5000726;28;20237;-90
2024/03/16 07:02:31;;;;;;;365.23;116.53;;;;;13.10;96850.00;;;;4984804;28;21420;-89
2024/03/16 07:05:24;;;;;;;351.97;108.30;;;;;12.80;96851.00;;;;5012417;28;20212;-89
2024/03/16 07:08:16;;;;;;;354.37;111.27;;;10.20;99.90;12.60;96841.00;;;;5010987;28;20279;-89
2024/03/16 07:11:06;;;;;;;382.40;126.97;;;;;13.00;96850.00;;;;4984190;28;20747;-89
2024/03/16 07:13:58;;;;;;;360.13;112.07;;;;;13.40;96851.00;;;;5002199;28;20612;-89
2024/03/16 07:16:53;;;;;;;353.07;110.03;;;;;13.30;96856.00;;;;5027681;28;20597;-89
2024/03/16 07:19:44;;;;;;;357.20;113.43;;;;;13.60;96862.00;;;;5011366;28;20307;-89
2024/03/16 07:22:39;;;;;;;359.10;114.87;;;10.60;99.90;13.40;96862.00;;;;5013137;28;20612;-90
2024/03/16 07:25:34;;;;;;;351.13;110.60;;;;;13.30;96863.00;;;;4996957;28;20201;-89
2024/03/16 07:28:27;;;;;;;356.13;110.47;;;10.70;99.90;12.90;96866.00;;;;5012893;28;20216;-89
2024/03/16 07:31:17;;;;;;;353.27;113.30;;;10.80;99.90;13.00;96864.00;;;;4995442;28;20671;-90
2024/03/16 07:34:08;;;;;;;366.63;123.97;;;10.80;99.90;12.90;96867.00;;;;5014115;28;21023;-89
2024/03/16 07:36:58;;;;;;;363.97;121.60;;;10.60;99.90;13.10;96876.00;;;;5004350;28;20221;-89
2024/03/16 07:39:48;;;;;;;358.00;117.93;;;10.60;99.90;13.30;96867.00;;;;5004965;28;20197;-91
2024/03/16 07:42:38;;;;;;;356.97;114.33;;;10.70;99.90;13.70;96880.00;;;;4984170;28;20686;-89
2024/03/16 07:45:27;;;;;;;359.40;120.93;;;10.70;99.90;13.20;96883.00;;;;5000420;28;20209;-88
2024/03/16 07:48:16;;;;;;;362.23;116.33;;;10.70;99.90;13.60;96881.00;;;;4987408;28;20651;-89
2024/03/16 07:51:16;;;;;;;372.20;122.40;;;10.90;99.90;13.60;96883.00;;;;5010059;28;20243;-89
2024/03/16 07:54:11;;;;;;;359.63;120.93;;;10.90;99.90;13.50;96881.00;;;;5012121;28;20289;-89
2024/03/16 07:57:03;;;;;;;364.73;123.37;;;10.90;99.90;13.60;96881.00;;;;5012844;28;20221;-88
2024/03/16 07:59:56;;;;;;;360.93;116.70;;;11.00;99.90;13.40;96892.00;;;;4999290;28;20237;-89
2024/03/16 08:02:45;;;;;;;354.60;114.13;;;11.00;99.90;13.80;96894.00;;;;5014612;28;20213;-88
2024/03/16 08:05:38;;;;;;;371.03;124.93;;;11.10;99.90;14.50;96891.00;;;;5000205;28;20201;-88
2024/03/16 08:08:43;;;;;;;357.03;113.87;;;11.30;99.90;13.60;96881.00;;;;4997996;28;20205;-89
2024/03/16 08:11:41;;;;;;;353.67;112.83;;;;;13.70;96889.00;;;;5023459;28;20207;-90
2024/03/16 08:14:34;;;;;;;354.47;112.90;;;11.50;99.90;14.10;96889.00;;;;5026391;28;20213;-88
2024/03/16 08:17:39;;;;;;;369.23;128.77;;;9.90;99.90;14.40;96888.00;;;;5002474;28;20220;-89
2024/03/16 08:20:30;;;;;;;371.03;128.20;;;;;14.90;96895.00;;;;4983207;28;20218;-89
2024/03/16 08:23:21;;;;;;;369.33;129.53;;;11.80;99.90;15.30;96889.00;;;;5009252;28;20235;-87
2024/03/16 08:26:25;;;;;;;380.23;138.87;;;12.00;99.90;15.10;96887.00;;;;5001309;28;20994;-87
2024/03/16 08:33:24;;;;;;;375.43;133.90;;;12.50;99.90;15.40;96894.00;;;;4977822;28;20213;-87
2024/03/16 08:36:22;;;;;;;378.83;143.67;;;12.30;99.90;15.00;96895.00;;;;5011309;28;20582;-87
2024/03/16 08:39:45;;;;;;;375.10;136.77;;;12.60;99.90;15.60;96893.00;;;;4987142;28;20232;-88
2024/03/16 08:42:52;;;;;;;371.83;135.77;;;12.70;99.90;15.90;96909.00;;;;4997440;28;20213;-87
2024/03/16 08:45:42;;;;;;;382.93;145.30;;;12.90;99.90;16.30;96902.00;;;;4997442;28;20729;-88
2024/03/16 08:48:35;;;;;;;375.87;143.67;;;12.90;99.90;16.10;96899.00;;;;5000068;28;20209;-88
2024/03/16 08:51:30;;;;;;;366.53;130.77;;;13.00;99.90;15.50;96899.00;;;;5013140;28;20221;-87
2024/03/16 08:54:21;;;;;;;380.27;144.83;;;13.10;99.90;15.30;96900.00;;;;4999144;28;20702;-87
2024/03/16 08:57:13;;;;;;;378.67;147.13;;;13.00;99.90;15.30;96913.00;;;;5022420;28;20209;-87
2024/03/16 09:00:04;;;;;;;370.17;144.70;;;12.90;99.90;15.60;96916.00;;;;4984966;28;20216;-87
2024/03/16 09:03:00;;;;;;;357.33;129.83;;;12.90;99.90;15.60;96929.00;;;;5002371;28;20219;-87
2024/03/16 09:05:56;;;;;;;360.83;136.87;;;;;15.70;96930.00;;;;5006912;28;20215;-87
2024/03/16 09:08:58;;;;;;;362.10;139.33;;;12.90;99.90;15.40;96930.00;;;;5007497;28;20197;-87
2024/03/16 09:12:09;;;;;;;363.20;134.47;;;12.90;99.90;15.20;96935.00;;;;5007004;28;20232;-88
2024/03/16 09:14:59;;;;;;;373.17;140.90;;;13.30;99.90;15.40;96946.00;;;;5020921;28;20202;-88
2024/03/16 09:17:54;;;;;;;368.30;131.57;;;;;15.20;96941.00;;;;5000624;28;20225;-88
2024/03/16 09:20:47;;;;;;;385.47;143.33;;;12.70;99.90;15.20;96946.00;;;;5000088;28;20228;-88
2024/03/16 09:23:37;;;;;;;370.57;140.03;;;12.50;99.90;15.20;96946.00;;;;4998512;28;20201;-87
2024/03/16 09:26:26;;;;;;;373.00;138.83;;;;;15.20;96954.00;;;;4987833;28;20582;-87
2024/03/16 09:29:20;;;;;;;375.93;138.23;;;12.40;99.90;15.30;96948.00;;;;5012082;28;20205;-86
2024/03/16 09:32:09;;;;;;;384.77;145.60;;;12.40;99.90;15.30;96954.00;;;;5009407;28;20275;-87
2024/03/16 09:34:58;;;;;;;369.67;138.93;;;12.30;99.90;15.30;96956.00;;;;5012780;28;20224;-86
2024/03/16 09:37:48;;;;;;;361.87;130.50;;;12.40;99.90;15.20;96943.00;;;;4997203;28;20235;-86
2024/03/16 09:40:43;;;;;;;375.97;140.73;;;12.30;99.90;15.00;96949.00;;;;5007960;28;20260;-87
2024/03/16 09:43:33;;;;;;;369.13;132.47;;;12.30;99.90;14.10;96950.00;;;;5002950;28;21586;-88
2024/03/16 09:46:23;;;;;;;359.33;121.97;;;12.10;99.90;15.00;96950.00;;;;4970896;28;20752;-88
2024/03/16 09:49:15;;;;;;;374.93;144.03;;;12.10;99.90;15.50;96946.00;;;;4979125;28;20201;-88
2024/03/16 09:52:04;;;;;;;380.63;139.67;;;10.50;99.90;15.50;96939.00;;;;5003841;28;20226;-86
2024/03/16 09:55:09;;;;;;;381.70;139.03;;;12.30;99.90;15.90;96947.00;;;;4993106;28;20218;-87
2024/03/16 09:58:00;;;;;;;372.43;138.03;;;;;16.10;96936.00;;;;5008649;28;20227;-86
2024/03/16 10:00:55;;;;;;;388.37;149.80;;;12.60;99.90;16.00;96948.00;;;;5009072;28;20540;-86
2024/03/16 10:03:46;;;;;;;378.83;140.70;;;;;16.50;96933.00;;;;4994538;28;20219;-87
2024/03/16 10:06:34;;;;;;;393.53;154.30;;;13.40;99.90;16.70;96936.00;;;;4996686;28;20530;-87
2024/03/16 10:09:25;;;;;;;380.43;148.37;;;13.20;99.90;17.40;96932.00;;;;5000095;28;20208;-88
2024/03/16 10:12:13;;;;;;;386.33;157.07;;;13.50;99.90;17.70;96933.00;;;;4997288;28;20217;-86
2024/03/16 10:15:20;;;;;;;393.87;172.50;;;13.80;99.90;17.90;96914.00;;;;5003041;28;20256;-87
2024/03/16 10:18:10;;;;;;;393.10;173.03;;;14.30;99.90;18.90;96923.00;;;;4991591;28;20239;-87
2024/03/16 10:21:05;;;;;;;401.63;179.87;;;14.70;99.90;18.70;96919.00;;;;5023225;28;20232;-87
2024/03/16 10:23:53;;;;;;;381.47;177.63;;;14.40;99.90;18.70;96917.00;;;;5012253;28;20650;-87
2024/03/16 10:26:41;;;;;;;385.70;184.17;;;15.20;99.90;18.60;96922.00;;;;5003895;28;20213;-87
2024/03/16 10:29:30;;;;;;;408.90;199.80;;;15.40;99.90;18.60;96924.00;;;;5017663;28;20197;-87
2024/03/16 10:32:21;;;;;;;406.30;202.47;;;15.40;99.90;18.10;96918.00;;;;4994550;28;20212;-87
2024/03/16 10:35:11;;;;;;;398.57;199.77;;;15.40;99.90;18.20;96929.00;;;;4989696;28;20725;-87
2024/03/16 10:37:59;;;;;;;389.13;197.20;;;15.30;99.90;18.60;96923.00;;;;5001830;28;20240;-87
2024/03/16 10:40:50;;;;;;;401.37;200.87;;;15.30;99.90;18.70;96921.00;;;;5002717;28;20231;-87
2024/03/16 10:43:38;;;;;;;384.00;192.47;;;16.30;99.90;18.60;96925.00;;;;4993490;28;20197;-86
2024/03/16 10:46:26;;;;;;;388.37;195.80;;;15.40;99.90;19.00;96927.00;;;;4982891;28;20255;-87
2024/03/16 10:49:14;;;;;;;394.90;204.13;;;15.50;99.90;19.00;96931.00;;;;5017602;28;20201;-87
2024/03/16 10:52:02;;;;;;;396.50;207.33;;;15.60;99.90;19.20;96920.00;;;;4993711;28;20725;-87
2024/03/16 10:54:51;;;;;;;386.73;200.87;;;15.70;99.90;19.30;96910.00;;;;4981215;28;20199;-87
2024/03/16 10:57:46;;;;;;;386.23;211.53;;;15.80;99.90;19.30;96912.00;;;;5005053;28;20205;-87
2024/03/16 11:00:37;;;;;;;392.70;213.17;;;;;20.10;96905.00;;;;4990163;28;20222;-87
2024/03/16 11:03:27;;;;;;;387.57;216.20;;;16.30;99.90;20.60;96905.00;;;;5001983;28;20227;-87
2024/03/16 11:09:41;;;;;;;387.90;248.27;;;;;20.40;96901.00;;;;5006520;28;20216;-86
2024/03/16 11:14:04;;;;;;;405.40;249.10;;;17.20;99.90;20.30;96900.00;;;;5009186;28;20213;-87
2024/03/16 11:17:08;;;;;;;390.10;240.67;;;17.20;99.90;20.30;96893.00;;;;4926893;28;20209;-86
2024/03/16 11:28:44;;;;;;;391.87;245.30;;;17.30;99.90;19.10;96884.00;;;;4887251;29;20402;-85
2024/03/16 11:31:39;;;;;;;390.40;245.30;;;;;19.50;96882.00;;;;4880196;29;20785;-86
2024/03/16 11:34:37;;;;;;;393.37;253.97;;;;;19.60;96876.00;;;;4892537;29;20616;-87
2024/03/16 11:37:30;;;;;;;398.87;254.90;;;;;20.10;96880.00;;;;4950039;28;20205;-87
2024/03/16 11:40:27;;;;;;;390.17;256.77;;;;;21.90;96871.00;;;;4994381;28;20233;-87
2024/03/16 11:43:15;;;;;;;399.73;271.50;;;17.70;99.90;22.70;96871.00;;;;4986792;28;20209;-87
2024/03/16 11:46:04;;;;;;;409.77;297.50;;;18.30;99.90;23.80;96867.00;;;;4988438;28;20658;-88
2024/03/16 11:49:03;;;;;;;417.87;328.00;;;19.30;99.30;21.10;96870.00;;;;5002289;28;20207;-87
2024/03/16 11:51:55;;;;;;;421.03;340.13;;;;;21.10;96875.00;;;;4980784;28;20220;-87
2024/03/16 11:55:10;;;;;;;420.17;348.63;;;19.10;99.40;21.50;96885.00;;;;4991174;28;20590;-88
2024/03/16 11:58:28;;;;;;;;;;;;;;;;;;;;;
2024/03/16 12:01:18;;;;;;;425.77;334.63;;;;;18.20;96884.00;;;;4990957;28;20225;-89
2024/03/16 12:04:12;;;;;;;421.20;318.40;;;;;18.80;96880.00;;;;4995114;28;20794;-89
2024/03/16 12:07:01;;;;;;;422.53;309.17;;;;;19.20;96880.00;;;;4988744;28;20674;-88
2024/03/16 12:10:14;;;;;;;410.10;278.53;;;;;20.00;96874.00;;;;5006062;28;20577;-87
2024/03/16 12:13:07;;;;;;;403.30;272.50;;;16.80;99.90;20.70;96867.00;;;;5009329;28;20215;-88
2024/03/16 12:16:02;;;;;;;399.37;264.93;;;17.10;99.90;20.10;96872.00;;;;4989424;28;20448;-89
2024/03/16 12:19:08;;;;;;;;;;;;;;;;;;;;;
2024/03/16 12:22:00;;;;;;;395.77;255.57;;;17.10;99.90;20.20;96883.00;;;;4998277;28;20228;-88
2024/03/16 12:24:53;;;;;;;394.70;253.60;;;17.20;99.90;20.40;96877.00;;;;5001475;28;20193;-88
2024/03/16 12:27:43;;;;;;;391.27;249.37;;;17.20;99.90;20.40;96872.00;;;;5014055;28;20694;-87
2024/03/16 12:30:34;;;;;;;399.57;259.70;;;17.40;99.90;20.50;96873.00;;;;4998634;28;20221;-87
2024/03/16 12:33:22;;;;;;;399.93;259.53;;;;;20.60;96851.00;;;;4987632;28;20231;-88
2024/03/16 12:36:14;;;;;;;402.80;265.77;;;;;21.00;96833.00;;;;4987118;28;20739;-86
2024/03/16 12:39:07;;;;;;;400.67;268.80;;;;;21.80;96849.00;;;;5010879;28;20659;-87
2024/03/16 12:41:56;;;;;;;391.00;266.83;;;;;22.50;96837.00;;;;4998313;28;20776;-87
2024/03/16 12:44:49;;;;;;;404.17;288.80;;;;;23.90;96815.00;;;;5001359;28;20205;-87
2024/03/16 12:47:47;;;;;;;399.40;312.87;;;;;24.50;96814.00;;;;4998734;28;20221;-87
2024/03/16 12:50:38;;;;;;;426.43;354.13;;;;;25.60;96806.00;;;;5000630;28;20217;-88
2024/03/16 12:53:39;;;;;;;438.57;391.67;;;21.60;95.30;26.80;96812.00;;;;4990089;28;20194;-85
2024/03/16 12:56:54;;;;;;;477.63;428.43;;;;;26.50;96816.00;;;;5002660;28;20734;-86
2024/03/16 12:59:47;;;;;;;506.00;456.13;;;;;25.20;96854.00;;;;4992053;28;20274;-86